Map

Track Data

SID SEASON NUMBER BASIN SUBBASIN NAME ISO_TIME NATURE LAT LON WMO_WIND WMO_PRES WMO_AGENCY TRACK_TYPE DIST2LAND LANDFALL IFLAG USA_AGENCY USA_ATCF_ID USA_LAT USA_LON USA_RECORD USA_STATUS USA_WIND USA_PRES USA_SSHS USA_R34_NE USA_R34_SE USA_R34_SW USA_R34_NW USA_R50_NE USA_R50_SE USA_R50_SW USA_R50_NW USA_R64_NE USA_R64_SE USA_R64_SW USA_R64_NW USA_POCI USA_ROCI USA_RMW USA_EYE TOKYO_LAT TOKYO_LON TOKYO_GRADE TOKYO_WIND TOKYO_PRES TOKYO_R50_DIR TOKYO_R50_LONG TOKYO_R50_SHORT TOKYO_R30_DIR TOKYO_R30_LONG TOKYO_R30_SHORT TOKYO_LAND CMA_LAT CMA_LON CMA_CAT CMA_WIND CMA_PRES HKO_LAT HKO_LON HKO_CAT HKO_WIND HKO_PRES NEWDELHI_LAT NEWDELHI_LON NEWDELHI_GRADE NEWDELHI_WIND NEWDELHI_PRES NEWDELHI_CI NEWDELHI_DP NEWDELHI_POCI REUNION_LAT REUNION_LON REUNION_TYPE REUNION_WIND REUNION_PRES REUNION_TNUM REUNION_CI REUNION_RMW REUNION_R34_NE REUNION_R34_SE REUNION_R34_SW REUNION_R34_NW REUNION_R50_NE REUNION_R50_SE REUNION_R50_SW REUNION_R50_NW REUNION_R64_NE REUNION_R64_SE REUNION_R64_SW REUNION_R64_NW BOM_LAT BOM_LON BOM_TYPE BOM_WIND BOM_PRES BOM_TNUM BOM_CI BOM_RMW BOM_R34_NE BOM_R34_SE BOM_R34_SW BOM_R34_NW BOM_R50_NE BOM_R50_SE BOM_R50_SW BOM_R50_NW BOM_R64_NE BOM_R64_SE BOM_R64_SW BOM_R64_NW BOM_ROCI BOM_POCI BOM_EYE BOM_POS_METHOD BOM_PRES_METHOD NADI_LAT NADI_LON NADI_CAT NADI_WIND NADI_PRES WELLINGTON_LAT WELLINGTON_LON WELLINGTON_WIND WELLINGTON_PRES DS824_LAT DS824_LON DS824_STAGE DS824_WIND DS824_PRES TD9636_LAT TD9636_LON TD9636_STAGE TD9636_WIND TD9636_PRES TD9635_LAT TD9635_LON TD9635_WIND TD9635_PRES TD9635_ROCI NEUMANN_LAT NEUMANN_LON NEUMANN_CLASS NEUMANN_WIND NEUMANN_PRES MLC_LAT MLC_LON MLC_CLASS MLC_WIND MLC_PRES USA_GUST BOM_GUST BOM_GUST_PER REUNION_GUST REUNION_GUST_PER USA_SEAHGT USA_SEARAD_NE USA_SEARAD_SE USA_SEARAD_SW USA_SEARAD_NW STORM_SPEED STORM_DIR
1997187N13250 1997 47 EP MM DOLORES 1997-07-05 12:00:00 TS 12.5000 -109.600 25 1006 hurdat_epa main 908 902 O_____________ hurdat_epa EP061997 12.5000 -109.600 TD 25 1006 -1 10 303
1997187N13250 1997 47 EP MM DOLORES 1997-07-05 15:00:00 TS 12.7676 -110.030 main 906 906 P_____________ EP061997 12.7676 -110.030 TD 27 1004 -1 10 300
1997187N13250 1997 47 EP MM DOLORES 1997-07-05 18:00:00 TS 13.0000 -110.500 30 1003 hurdat_epa main 923 921 O_____________ hurdat_epa EP061997 13.0000 -110.500 TD 30 1003 -1 11 292
1997187N13250 1997 47 EP MM DOLORES 1997-07-05 21:00:00 TS 13.1725 -111.035 main 942 942 P_____________ EP061997 13.1725 -111.035 TD 35 1001 0 11 286
1997187N13250 1997 47 EP MM DOLORES 1997-07-06 00:00:00 TS 13.3000 -111.600 40 1000 hurdat_epa main 980 980 O_____________ hurdat_epa EP061997 13.3000 -111.600 TS 40 1000 0 11 282
1997187N13250 1997 47 EP MM DOLORES 1997-07-06 03:00:00 TS 13.3999 -112.150 main 1018 1018 P_____________ EP061997 13.3999 -112.150 TS 42 998 0 11 281
1997187N13250 1997 47 EP MM DOLORES 1997-07-06 06:00:00 TS 13.5000 -112.700 45 997 hurdat_epa main 1050 1050 O_____________ hurdat_epa EP061997 13.5000 -112.700 TS 45 997 0 11 283
1997187N13250 1997 47 EP MM DOLORES 1997-07-06 09:00:00 TS 13.6348 -113.235 main 1083 1083 P_____________ EP061997 13.6348 -113.235 TS 50 996 0 11 286
1997187N13250 1997 47 EP MM DOLORES 1997-07-06 12:00:00 TS 13.8000 -113.800 55 996 hurdat_epa main 1094 1091 O_____________ hurdat_epa EP061997 13.8000 -113.800 TS 55 996 0 12 287
1997187N13250 1997 47 EP MM DOLORES 1997-07-06 15:00:00 TS 14.0000 -114.442 main 1098 1097 P_____________ EP061997 14.0000 -114.442 TS 55 995 0 13 288
1997187N13250 1997 47 EP MM DOLORES 1997-07-06 18:00:00 TS 14.2000 -115.100 55 995 hurdat_epa main 1111 1111 O_____________ hurdat_epa EP061997 14.2000 -115.100 TS 55 995 0 13 286
1997187N13250 1997 47 EP MM DOLORES 1997-07-06 21:00:00 TS 14.3573 -115.708 main 1124 1124 P_____________ EP061997 14.3573 -115.708 TS 55 994 0 12 284
1997187N13250 1997 47 EP MM DOLORES 1997-07-07 00:00:00 TS 14.5000 -116.300 55 993 hurdat_epa main 1149 1149 O_____________ hurdat_epa EP061997 14.5000 -116.300 TS 55 993 0 12 284
1997187N13250 1997 47 EP MM DOLORES 1997-07-07 03:00:00 TS 14.6498 -116.900 main 1178 1169 P_____________ EP061997 14.6498 -116.900 TS 57 992 0 12 284
1997187N13250 1997 47 EP MM DOLORES 1997-07-07 06:00:00 TS 14.8000 -117.500 60 991 hurdat_epa main 1201 1201 O_____________ hurdat_epa EP061997 14.8000 -117.500 TS 60 991 0 12 285
1997187N13250 1997 47 EP MM DOLORES 1997-07-07 09:00:00 TS 14.9498 -118.100 main 1235 1226 P_____________ EP061997 14.9498 -118.100 TS 62 989 0 12 285
1997187N13250 1997 47 EP MM DOLORES 1997-07-07 12:00:00 TS 15.1000 -118.700 65 988 hurdat_epa main 1263 1263 O_____________ hurdat_epa EP061997 15.1000 -118.700 HU 65 988 1 12 285
1997187N13250 1997 47 EP MM DOLORES 1997-07-07 15:00:00 TS 15.2498 -119.293 main 1301 1292 P_____________ EP061997 15.2498 -119.293 HU 67 986 1 12 285
1997187N13250 1997 47 EP MM DOLORES 1997-07-07 18:00:00 TS 15.4000 -119.900 70 985 hurdat_epa main 1320 1320 O_____________ hurdat_epa EP061997 15.4000 -119.900 HU 70 985 1 13 284
1997187N13250 1997 47 EP MM DOLORES 1997-07-07 21:00:00 TS 15.5500 -120.558 main 1349 1349 P_____________ EP061997 15.5500 -120.558 HU 72 983 1 13 283
1997187N13250 1997 47 EP MM DOLORES 1997-07-08 00:00:00 TS 15.7000 -121.200 75 981 hurdat_epa main 1382 1382 O_____________ hurdat_epa EP061997 15.7000 -121.200 HU 75 981 1 12 284
1997187N13250 1997 47 EP MM DOLORES 1997-07-08 03:00:00 TS 15.8421 -121.743 main 1410 1410 P_____________ EP061997 15.8421 -121.743 HU 75 980 1 11 286
1997187N13250 1997 47 EP MM DOLORES 1997-07-08 06:00:00 TS 16.0000 -122.300 75 979 hurdat_epa main 1439 1439 O_____________ hurdat_epa EP061997 16.0000 -122.300 HU 75 979 1 12 286
1997187N13250 1997 47 EP MM DOLORES 1997-07-08 09:00:00 TS 16.1925 -122.985 main 1478 1478 P_____________ EP061997 16.1925 -122.985 HU 75 979 1 14 287
1997187N13250 1997 47 EP MM DOLORES 1997-07-08 12:00:00 TS 16.4000 -123.700 75 979 hurdat_epa main 1520 1520 O_____________ hurdat_epa EP061997 16.4000 -123.700 HU 75 979 1 14 287
1997187N13250 1997 47 EP MM DOLORES 1997-07-08 15:00:00 TS 16.5997 -124.358 main 1563 1563 P_____________ EP061997 16.5997 -124.358 HU 75 979 1 13 288
1997187N13250 1997 47 EP MM DOLORES 1997-07-08 18:00:00 TS 16.8000 -125.000 75 979 hurdat_epa main 1593 1593 O_____________ hurdat_epa EP061997 16.8000 -125.000 HU 75 979 1 13 288
1997187N13250 1997 47 EP MM DOLORES 1997-07-08 21:00:00 TS 17.0074 -125.658 main 1623 1621 P_____________ EP061997 17.0074 -125.658 HU 75 978 1 13 288
1997187N13250 1997 47 EP MM DOLORES 1997-07-09 00:00:00 TS 17.2000 -126.300 75 978 hurdat_epa main 1648 1648 O_____________ hurdat_epa EP061997 17.2000 -126.300 HU 75 978 1 12 287
1997187N13250 1997 47 EP MM DOLORES 1997-07-09 03:00:00 TS 17.3647 -126.908 main 1676 1676 P_____________ EP061997 17.3647 -126.908 HU 77 976 1 12 285
1997187N13250 1997 47 EP MM DOLORES 1997-07-09 06:00:00 TS 17.5000 -127.500 80 975 hurdat_epa main 1713 1713 O_____________ hurdat_epa EP061997 17.5000 -127.500 HU 80 975 1 12 282
1997187N13250 1997 47 EP MM DOLORES 1997-07-09 09:00:00 TS 17.6147 -128.093 main 1752 1752 P_____________ EP061997 17.6147 -128.093 HU 77 976 1 12 280
1997187N13250 1997 47 EP MM DOLORES 1997-07-09 12:00:00 TS 17.7000 -128.700 75 977 hurdat_epa main 1792 1792 O_____________ hurdat_epa EP061997 17.7000 -128.700 HU 75 977 1 12 275
1997187N13250 1997 47 EP MM DOLORES 1997-07-09 15:00:00 TS 17.7274 -129.343 main 1841 1841 P_____________ EP061997 17.7274 -129.343 HU 72 978 1 12 275
1997187N13250 1997 47 EP MM DOLORES 1997-07-09 18:00:00 TS 17.8000 -130.000 70 979 hurdat_epa main 1891 1891 O_____________ hurdat_epa EP061997 17.8000 -130.000 HU 70 979 1 13 284
1997187N13250 1997 47 EP MM DOLORES 1997-07-09 21:00:00 TS 18.0348 -130.650 main 1927 1927 P_____________ EP061997 18.0348 -130.650 HU 67 981 1 13 292
1997187N13250 1997 47 EP MM DOLORES 1997-07-10 00:00:00 TS 18.3000 -131.300 65 984 hurdat_epa main 1967 1967 O_____________ hurdat_epa EP061997 18.3000 -131.300 HU 65 984 1 13 290
1997187N13250 1997 47 EP MM DOLORES 1997-07-10 03:00:00 TS 18.4796 -131.935 main 2007 2007 P_____________ EP061997 18.4796 -131.935 HU 62 986 0 13 284
1997187N13250 1997 47 EP MM DOLORES 1997-07-10 06:00:00 TS 18.6000 -132.600 60 989 hurdat_epa main 2062 2062 O_____________ hurdat_epa EP061997 18.6000 -132.600 TS 60 989 0 13 278
1997187N13250 1997 47 EP MM DOLORES 1997-07-10 09:00:00 TS 18.6575 -133.343 main 2119 2119 P_____________ EP061997 18.6575 -133.343 TS 55 992 0 14 274
1997187N13250 1997 47 EP MM DOLORES 1997-07-10 12:00:00 TS 18.7000 -134.100 50 995 hurdat_epa main 2175 2101 O_____________ hurdat_epa EP061997 18.7000 -134.100 TS 50 995 0 14 275
1997187N13250 1997 47 EP MM DOLORES 1997-07-10 15:00:00 TS 18.7772 -134.808 main 2101 2026 P_____________ EP061997 18.7772 -134.808 TS 45 998 0 13 279
1997187N13250 1997 47 EP MM DOLORES 1997-07-10 18:00:00 TS 18.9000 -135.500 40 1001 hurdat_epa main 2026 1951 O_____________ hurdat_epa EP061997 18.9000 -135.500 TS 40 1001 0 14 283
1997187N13250 1997 47 EP MM DOLORES 1997-07-10 21:00:00 TS 19.0925 -136.222 main 1951 1876 P_____________ EP061997 19.0925 -136.222 TS 37 1003 0 14 287
1997187N13250 1997 47 EP MM DOLORES 1997-07-11 00:00:00 TS 19.3000 -136.900 35 1005 hurdat_epa main 1876 1813 O_____________ hurdat_epa EP061997 19.3000 -136.900 TS 35 1005 0 12 286
1997187N13250 1997 47 EP MM DOLORES 1997-07-11 03:00:00 TS 19.4347 -137.488 main 1813 1759 P_____________ EP061997 19.4347 -137.488 TS 32 1006 -1 11 286
1997187N13250 1997 47 EP MM DOLORES 1997-07-11 06:00:00 TS 19.6000 -138.000 30 1007 hurdat_epa main 1759 1717 O_____________ hurdat_epa EP061997 19.6000 -138.000 TD 30 1007 -1 10 295
1997187N13250 1997 47 EP MM DOLORES 1997-07-11 09:00:00 TS 19.8622 -138.450 main 1706 1664 P_____________ EP061997 19.8622 -138.450 TD 30 1007 -1 10 305
1997187N13250 1997 47 EP MM DOLORES 1997-07-11 12:00:00 TS 20.2000 -138.900 30 1008 hurdat_epa main 1664 1612 O_____________ hurdat_epa EP061997 20.2000 -138.900 TD 30 1008 -1 12 308
1997187N13250 1997 47 EP MM DOLORES 1997-07-11 15:00:00 TS 20.5849 -139.428 main 1612 1552 P_____________ EP061997 20.5849 -139.428 TD 30 1008 -1 13 308
1997187N13250 1997 47 EP CP DOLORES 1997-07-11 18:00:00 TS 21.0000 -140.000 30 1008 hurdat_epa main 1552 1504 O_____________ hurdat_epa EP061997 21.0000 -140.000 TD 30 1008 -1 14 308
1997187N13250 1997 47 EP CP DOLORES 1997-07-11 21:00:00 TS 21.4315 -140.570 main 1493 1437 P_____________ EP061997 21.4296 -140.570 TD 30 1009 -1 14 306
1997187N13250 1997 47 EP CP DOLORES 1997-07-12 00:00:00 TS 21.8000 -141.200 30 1010 hurdat_epa main 1437 1369 O_____________ hurdat_epa EP061997 21.8000 -141.200 TD 30 1010 -1 14 295
1997187N13250 1997 47 EP CP DOLORES 1997-07-12 03:00:00 TS 22.0225 -141.936 main 1369 1292 P_____________ EP061997 22.0225 -141.936 TD 30 1010 -1 14 286
1997187N13250 1997 47 EP CP DOLORES 1997-07-12 06:00:00 TS 22.2000 -142.700 30 1010 hurdat_epa main 1292 1226 O_____________ hurdat_epa EP061997 22.2000 -142.700 TD 30 1010 -1 14 287
1997187N13250 1997 47 EP CP DOLORES 1997-07-12 09:00:00 TS 22.4424 -143.430 main 1226 1165 P_____________ EP061997 22.4424 -143.430 TD 30 1010 -1 14 291
1997187N13250 1997 47 EP CP DOLORES 1997-07-12 12:00:00 TS 22.7000 -144.100 30 1010 hurdat_epa main 1165 1123 O_____________ hurdat_epa EP061997 22.7000 -144.100 TD 30 1010 -1 13 294
1997187N13250 1997 47 EP CP DOLORES 1997-07-12 15:00:00 TS 22.9527 -144.677 main 1116 1076 P_____________ EP061997 22.9527 -144.677 TD 27 1010 -1 11 296
1997187N13250 1997 47 EP CP DOLORES 1997-07-12 18:00:00 TS 23.2000 -145.200 25 1010 hurdat_epa main 1076 O_____________ hurdat_epa EP061997 23.2000 -145.200 TD 25 1010 -1 11 297

About IBTrACS Database

This database is a web-friendly format of International Best Track Archive for Climate Stewardship (IBTrACS), a global best track data archive curated by NOAA dating back to 1842.

Updated: 2021-10-08